RJOI/IWA METAR and TAF weather

Enter ICAO airport designator
Station Type Date Time Source
RJOI METAR 2019/12/10 05:55 UTC NOAA

RJOI 100555Z 16004KT 9999 FEW030 SCT200 14/06 A3016 RMK SLP211 T01390061 10144 20072 55014


Station Type Date Time Source
RJOI Decoded METAR 2019/12/10 05:55 UTC NOAA

MCAS IWAKUNI,JAPAN, JA, Japan (RJOI) 34-09N 132-14E 5M
Dec 10, 2019 - 12:55 AM EST / 2019.12.10 0555 UTC
Wind: from the SSE (160 degrees) at 5 MPH (4 KT):0
Visibility: greater than 7 mile(s):0
Sky conditions: partly cloudy
Temperature: 57.0 F (13.9 C)
Dew Point: 43.0 F (6.1 C)
Relative Humidity: 59%
Pressure (altimeter): 30.16 in. Hg (1021 hPa)
Pressure tendency: 0.04 inches (1.4 hPa) lower than three hours ago
ob: RJOI 100555Z 16004KT 9999 FEW030 SCT200 14/06 A3016 RMK SLP211 T01390061 10144 20072 55014
cycle: 6

Station Type Date Time Source
RJOI TAF 2019/12/10 05:24 UTC NOAA

TAF TAF RJOI 1005/1105 VRB06KT 9999 FEW025 SCT200 511405 522604 QNH3011INS
FM100900 32006KT 9999 FEW030 FEW200 511405 522604 QNH3009INS
FM101500 33008KT 9999 SCT030 SCT200 511405 522604 QNH3008INS
FM101800 02008KT 9999 FEW030 FEW150 SCT200 511207 522604 QNH3006INS
FM110000 20008KT 9999 SCT030 SCT150 BKN200 621507 511207 522204 QNH3003INS
FM110400 18010KT 9999 SCT030 BKN045 BKN140 BKN200 621408 511405 522204 QNH3001INS T04/1021Z T16/1105Z

Example: see airport list